createdAt,value
2019-02-22T00:02:36.380Z,7.91
2019-02-22T00:05:07.723Z,7.86
2019-02-22T00:07:38.252Z,7.77
2019-02-22T00:10:09.464Z,7.67
2019-02-22T00:12:39.979Z,7.80
2019-02-22T00:15:10.544Z,7.66
2019-02-22T00:17:41.050Z,7.57
2019-02-22T00:20:11.544Z,7.69
2019-02-22T00:22:42.007Z,7.70
2019-02-22T00:25:12.517Z,7.78
2019-02-22T00:27:43.010Z,7.73
2019-02-22T00:30:13.623Z,7.59
2019-02-22T00:32:44.104Z,7.61
2019-02-22T00:35:14.664Z,7.59
2019-02-22T00:37:45.149Z,7.65
2019-02-22T00:40:15.665Z,7.66
2019-02-22T00:42:46.118Z,7.45
2019-02-22T00:45:16.716Z,7.39
2019-02-22T00:47:47.276Z,7.44
2019-02-22T00:50:17.841Z,7.50
2019-02-22T00:52:48.350Z,7.40
2019-02-22T00:55:18.814Z,7.53
2019-02-22T00:57:49.310Z,7.53
2019-02-22T01:00:19.824Z,7.65
2019-02-22T01:02:50.326Z,7.50
2019-02-22T01:05:20.786Z,7.60
2019-02-22T01:07:51.288Z,7.47
2019-02-22T01:10:30.837Z,7.54
2019-02-22T01:12:53.957Z,7.64
2019-02-22T01:15:24.455Z,7.69
2019-02-22T01:17:54.917Z,7.68
2019-02-22T01:20:25.421Z,7.48
2019-02-22T01:22:55.917Z,7.47
2019-02-22T01:25:26.415Z,7.54
2019-02-22T01:27:56.887Z,7.60
2019-02-22T01:30:27.377Z,7.64
2019-02-22T01:32:57.894Z,7.76
2019-02-22T01:35:28.406Z,7.59
2019-02-22T01:37:58.906Z,7.55
2019-02-22T01:40:29.420Z,7.50
2019-02-22T01:42:59.926Z,7.55
2019-02-22T01:45:30.437Z,7.46
2019-02-22T01:48:00.910Z,7.42
2019-02-22T01:50:31.416Z,7.39
2019-02-22T01:53:01.875Z,7.26
2019-02-22T01:55:32.427Z,7.53
2019-02-22T01:58:02.983Z,7.61
2019-02-22T02:00:33.461Z,7.72
2019-02-22T02:03:03.971Z,7.63
2019-02-22T02:05:34.437Z,7.67
2019-02-22T02:08:05.057Z,7.55
2019-02-22T02:10:35.528Z,7.48
2019-02-22T02:13:05.984Z,7.49
2019-02-22T02:15:36.479Z,7.53
2019-02-22T02:18:06.976Z,7.17
2019-02-22T02:20:37.499Z,7.48
2019-02-22T02:23:07.942Z,7.53
2019-02-22T02:25:38.396Z,7.48
2019-02-22T02:28:08.935Z,7.60
2019-02-22T02:30:39.394Z,7.65
2019-02-22T02:33:09.983Z,7.67
2019-02-22T02:35:40.425Z,7.76
2019-02-22T02:38:10.876Z,7.68
2019-02-22T02:40:41.383Z,7.74
2019-02-22T02:43:11.845Z,7.68
2019-02-22T02:45:42.301Z,7.77
2019-02-22T02:48:12.796Z,7.69
2019-02-22T02:50:43.294Z,7.69
2019-02-22T02:53:13.856Z,7.77
2019-02-22T02:55:44.363Z,7.77
2019-02-22T02:58:14.817Z,7.79
2019-02-22T03:00:45.267Z,7.86
2019-02-22T03:03:15.760Z,7.85
2019-02-22T03:06:05.080Z,7.86
2019-02-22T03:08:36.416Z,7.98
2019-02-22T03:11:06.884Z,8.05
2019-02-22T03:13:37.385Z,7.97
2019-02-22T03:16:07.848Z,7.95
2019-02-22T03:18:38.312Z,8.04
2019-02-22T03:21:08.798Z,8.00
2019-02-22T03:23:39.289Z,7.88
2019-02-22T03:26:09.786Z,7.52
2019-02-22T03:28:40.288Z,7.41
2019-02-22T03:31:10.829Z,6.68
2019-02-22T03:33:41.297Z,7.36
2019-02-22T03:36:11.809Z,7.29
2019-02-22T03:38:42.272Z,7.32
2019-02-22T03:41:12.782Z,7.34
2019-02-22T03:43:43.238Z,7.07
2019-02-22T03:46:13.704Z,7.39
2019-02-22T03:48:44.211Z,7.04
2019-02-22T03:51:14.726Z,7.08
2019-02-22T03:53:51.219Z,7.24
2019-02-22T03:56:21.918Z,7.01
2019-02-22T03:58:52.516Z,6.98
2019-02-22T04:01:22.989Z,6.81
2019-02-22T04:03:53.654Z,7.07
2019-02-22T04:06:24.148Z,7.21
2019-02-22T04:08:54.640Z,7.25
2019-02-22T04:11:25.217Z,7.26
2019-02-22T04:13:55.784Z,7.22
2019-02-22T04:16:26.278Z,7.23
2019-02-22T04:18:56.887Z,7.31
2019-02-22T04:21:27.391Z,7.17
2019-02-22T04:23:57.854Z,7.25
2019-02-22T04:26:28.381Z,7.22
2019-02-22T04:28:58.883Z,7.37
2019-02-22T04:31:29.357Z,7.41
2019-02-22T04:33:59.858Z,7.50
2019-02-22T04:36:30.315Z,7.50
2019-02-22T04:39:00.809Z,7.49
2019-02-22T04:41:31.313Z,7.53
2019-02-22T04:44:01.791Z,7.56
2019-02-22T04:46:32.276Z,7.60
2019-02-22T04:49:02.725Z,7.58
2019-02-22T04:51:33.230Z,7.46
2019-02-22T04:54:03.723Z,7.29
2019-02-22T04:56:34.248Z,7.47
2019-02-22T04:59:04.731Z,7.54
2019-02-22T05:01:35.194Z,7.49
2019-02-22T05:04:07.111Z,7.17
2019-02-22T05:06:37.696Z,7.07
2019-02-22T05:09:08.191Z,7.18
2019-02-22T05:11:38.649Z,7.19
2019-02-22T05:14:09.152Z,7.22
2019-02-22T05:16:39.631Z,7.25
2019-02-22T05:19:10.144Z,7.34
2019-02-22T05:21:40.605Z,7.38
2019-02-22T05:24:11.166Z,7.31
2019-02-22T05:26:41.685Z,7.34
2019-02-22T05:29:12.156Z,7.38
2019-02-22T05:31:42.657Z,7.47
2019-02-22T05:34:13.168Z,7.25
2019-02-22T05:36:44.375Z,7.28
2019-02-22T05:39:19.108Z,7.00
2019-02-22T05:41:47.101Z,7.21
2019-02-22T05:44:17.579Z,6.68
2019-02-22T05:46:59.649Z,7.45
2019-02-22T05:49:22.356Z,7.29
2019-02-22T05:51:52.553Z,7.19
2019-02-22T05:54:23.056Z,7.27
2019-02-22T05:56:55.112Z,7.22
2019-02-22T05:59:25.882Z,7.42
2019-02-22T06:01:56.345Z,7.71
2019-02-22T06:04:26.806Z,7.88
2019-02-22T06:06:57.330Z,7.99
2019-02-22T06:09:27.809Z,8.18
2019-02-22T06:11:58.419Z,8.37
2019-02-22T06:14:29.032Z,8.57
2019-02-22T06:16:59.709Z,8.77
2019-02-22T06:19:30.235Z,8.96
2019-02-22T06:22:00.760Z,9.23
2019-02-22T06:24:31.223Z,9.45
2019-02-22T06:27:01.832Z,9.69
2019-02-22T06:29:32.321Z,10.10
2019-02-22T06:32:02.851Z,10.31
2019-02-22T06:34:33.328Z,10.67
2019-02-22T06:37:03.841Z,10.78
2019-02-22T06:39:34.359Z,10.88
2019-02-22T06:42:04.883Z,10.92
2019-02-22T06:44:35.372Z,10.90
2019-02-22T06:47:05.970Z,10.90
2019-02-22T06:49:36.487Z,10.85
2019-02-22T06:52:06.971Z,11.04
2019-02-22T06:54:37.493Z,11.05
2019-02-22T06:57:08.043Z,10.98
2019-02-22T06:59:38.520Z,10.80
2019-02-22T07:02:09.030Z,11.10
2019-02-22T07:04:39.547Z,11.28
2019-02-22T07:07:10.125Z,11.47
2019-02-22T07:09:40.634Z,11.66
2019-02-22T07:12:18.425Z,11.61
2019-02-22T07:14:48.906Z,11.76
2019-02-22T07:17:19.455Z,11.82
2019-02-22T07:19:50.016Z,11.84
2019-02-22T07:22:20.519Z,12.00
2019-02-22T07:24:51.074Z,12.12
2019-02-22T07:27:21.590Z,12.13
2019-02-22T07:29:52.111Z,12.29
2019-02-22T07:32:22.587Z,12.13
2019-02-22T07:34:53.087Z,12.15
2019-02-22T07:37:23.593Z,12.11
2019-02-22T07:39:54.107Z,12.00
2019-02-22T07:42:24.585Z,11.98
2019-02-22T07:44:55.099Z,12.13
2019-02-22T07:47:25.578Z,12.06
2019-02-22T07:49:56.057Z,12.00
2019-02-22T07:52:26.528Z,12.09
2019-02-22T07:54:57.005Z,12.27
2019-02-22T07:57:27.526Z,12.12
2019-02-22T07:59:58.057Z,12.26
2019-02-22T08:02:28.532Z,12.10
2019-02-22T08:04:59.148Z,12.29
2019-02-22T08:07:29.672Z,11.95
2019-02-22T08:10:00.333Z,12.03
2019-02-22T08:12:30.835Z,12.11
2019-02-22T08:15:01.408Z,12.26
2019-02-22T08:17:31.926Z,12.24
2019-02-22T08:20:02.398Z,11.75
2019-02-22T08:22:32.957Z,12.32
2019-02-22T08:25:03.420Z,12.27
2019-02-22T08:27:33.878Z,12.44
2019-02-22T08:30:04.950Z,12.56
2019-02-22T08:32:35.430Z,12.54
2019-02-22T08:35:06.156Z,12.42
2019-02-22T08:37:36.684Z,12.17
2019-02-22T08:40:08.165Z,12.48
2019-02-22T08:42:38.639Z,12.46
2019-02-22T08:45:09.837Z,12.50
2019-02-22T08:47:40.453Z,12.47
2019-02-22T08:50:11.073Z,12.57
2019-02-22T08:52:41.581Z,12.44
2019-02-22T08:55:12.112Z,12.34
2019-02-22T08:57:42.572Z,12.37
2019-02-22T09:00:13.614Z,12.28
2019-02-22T09:02:44.070Z,12.36
2019-02-22T09:05:14.598Z,12.37
2019-02-22T09:07:45.071Z,12.44
2019-02-22T09:10:15.746Z,12.40
2019-02-22T09:12:46.401Z,12.35
2019-02-22T09:15:17.066Z,12.45
2019-02-22T09:17:47.678Z,12.39
2019-02-22T09:20:18.501Z,12.39
2019-02-22T09:22:49.001Z,12.55
2019-02-22T09:25:19.523Z,12.53
2019-02-22T09:27:52.409Z,12.45
2019-02-22T09:30:22.909Z,12.43
2019-02-22T09:32:53.384Z,12.32
2019-02-22T09:35:23.899Z,12.36
2019-02-22T09:37:54.365Z,12.48
2019-02-22T09:40:24.984Z,12.39
2019-02-22T09:42:55.465Z,12.45
2019-02-22T09:45:25.969Z,12.52
2019-02-22T09:47:56.476Z,12.69
2019-02-22T09:50:26.993Z,12.74
2019-02-22T09:52:57.496Z,12.64
2019-02-22T09:55:28.001Z,12.61
2019-02-22T09:57:58.550Z,12.52
2019-02-22T10:00:29.087Z,12.63
2019-02-22T10:02:59.831Z,12.65
2019-02-22T10:05:30.399Z,12.59
2019-02-22T10:08:00.939Z,12.74
2019-02-22T10:10:31.602Z,12.85
2019-02-22T10:13:02.115Z,12.77
2019-02-22T10:15:32.716Z,12.85
2019-02-22T10:18:03.340Z,12.72
2019-02-22T10:20:33.801Z,12.65
2019-02-22T10:23:04.359Z,12.19
2019-02-22T10:25:35.010Z,12.76
2019-02-22T10:28:16.944Z,12.77
2019-02-22T10:30:38.163Z,12.75
2019-02-22T10:33:08.726Z,12.75
2019-02-22T10:35:39.197Z,12.76
2019-02-22T10:38:09.742Z,12.65
2019-02-22T10:40:40.677Z,12.52
2019-02-22T10:43:11.161Z,12.71
2019-02-22T10:45:41.629Z,11.88
2019-02-22T10:48:12.112Z,12.56
2019-02-22T10:50:42.814Z,12.40
2019-02-22T10:53:13.283Z,12.48
2019-02-22T10:55:43.847Z,12.35
2019-02-22T10:58:14.341Z,12.27
2019-02-22T11:00:44.870Z,12.39
2019-02-22T11:03:15.428Z,12.43
2019-02-22T11:05:45.889Z,12.46
2019-02-22T11:08:16.403Z,12.52
2019-02-22T11:10:47.142Z,12.59
2019-02-22T11:13:18.238Z,12.63
2019-02-22T11:15:48.697Z,12.61
2019-02-22T11:18:19.207Z,12.68
2019-02-22T11:20:49.687Z,12.72
2019-02-22T11:23:20.303Z,12.73
2019-02-22T11:25:50.831Z,12.75
2019-02-22T11:28:21.308Z,12.63
2019-02-22T11:30:51.794Z,12.64
2019-02-22T11:33:22.302Z,12.74
2019-02-22T11:35:53.651Z,12.84
2019-02-22T11:38:24.134Z,12.91
2019-02-22T11:40:54.689Z,12.90
2019-02-22T11:43:25.217Z,12.82
2019-02-22T11:45:55.794Z,12.95
2019-02-22T11:48:26.354Z,12.92
2019-02-22T11:50:56.896Z,12.87
2019-02-22T11:53:27.384Z,13.03
2019-02-22T11:55:57.981Z,12.92
2019-02-22T11:58:28.535Z,13.17
2019-02-22T12:00:59.074Z,13.12
2019-02-22T12:03:29.541Z,13.11
2019-02-22T12:06:01.255Z,13.07
2019-02-22T12:08:31.783Z,13.12
2019-02-22T12:11:02.251Z,13.29
2019-02-22T12:13:39.470Z,13.34
2019-02-22T12:16:10.061Z,13.50
2019-02-22T12:18:40.695Z,13.66
2019-02-22T12:21:11.170Z,13.68
2019-02-22T12:23:41.637Z,13.63
2019-02-22T12:26:12.171Z,13.75
2019-02-22T12:28:42.679Z,13.69
2019-02-22T12:31:13.391Z,13.88
2019-02-22T12:33:43.913Z,13.73
2019-02-22T12:36:14.427Z,13.62
2019-02-22T12:38:44.999Z,13.67
2019-02-22T12:41:15.502Z,13.31
2019-02-22T12:43:46.009Z,13.32
2019-02-22T12:46:16.534Z,12.96
2019-02-22T12:48:47.068Z,12.86
2019-02-22T12:51:17.603Z,12.70
2019-02-22T12:53:48.141Z,12.80
2019-02-22T12:56:18.691Z,12.64
2019-02-22T12:58:49.166Z,12.46
2019-02-22T13:01:19.664Z,12.39
2019-02-22T13:03:50.178Z,12.42
2019-02-22T13:06:21.638Z,12.49
2019-02-22T13:08:52.176Z,12.47
2019-02-22T13:11:22.790Z,12.40
2019-02-22T13:13:53.251Z,12.55
2019-02-22T13:16:23.770Z,12.39
2019-02-22T13:18:55.564Z,12.38
2019-02-22T13:21:26.052Z,12.26
2019-02-22T13:23:57.327Z,12.26
2019-02-22T13:26:27.928Z,12.29
2019-02-22T13:28:58.400Z,12.16
2019-02-22T13:31:30.312Z,12.18
2019-02-22T13:34:00.971Z,12.26
2019-02-22T13:36:31.440Z,12.25
2019-02-22T13:39:01.925Z,12.30
2019-02-22T13:41:32.438Z,12.22
2019-02-22T13:44:02.946Z,12.38
2019-02-22T13:46:33.430Z,12.25
2019-02-22T13:49:04.028Z,12.43
2019-02-22T13:51:34.572Z,12.48
2019-02-22T13:54:05.159Z,12.42
2019-02-22T13:56:35.663Z,12.39
2019-02-22T13:59:06.306Z,12.51
2019-02-22T14:01:36.814Z,12.47
2019-02-22T14:04:08.922Z,12.23
2019-02-22T14:06:39.445Z,12.37
2019-02-22T14:09:09.918Z,12.43
2019-02-22T14:11:40.423Z,12.51
2019-02-22T14:14:10.903Z,12.61
2019-02-22T14:16:41.498Z,12.58
2019-02-22T14:19:12.008Z,12.56
2019-02-22T14:21:42.515Z,12.61
2019-02-22T14:24:13.040Z,12.72
2019-02-22T14:26:43.535Z,12.51
2019-02-22T14:29:14.034Z,12.52
2019-02-22T14:31:44.617Z,12.52
2019-02-22T14:34:15.128Z,12.63
2019-02-22T14:36:45.714Z,12.54
2019-02-22T14:39:17.907Z,12.55
2019-02-22T14:41:48.495Z,12.55
2019-02-22T14:44:19.017Z,12.50
2019-02-22T14:46:49.475Z,11.57
2019-02-22T14:49:19.977Z,12.22
2019-02-22T14:51:50.438Z,12.35
2019-02-22T14:54:20.956Z,12.35
2019-02-22T14:56:51.475Z,12.23
2019-02-22T14:59:21.966Z,12.13
2019-02-22T15:01:52.437Z,12.31
2019-02-22T15:04:22.914Z,12.21
2019-02-22T15:06:53.456Z,12.13
2019-02-22T15:09:23.942Z,12.02
2019-02-22T15:11:57.378Z,11.58
2019-02-22T15:14:27.982Z,11.43
2019-02-22T15:17:15.308Z,11.53
2019-02-22T15:19:45.828Z,11.44
2019-02-22T15:22:17.936Z,11.36
2019-02-22T15:24:48.549Z,11.37
2019-02-22T15:27:19.023Z,11.29
2019-02-22T15:29:50.456Z,11.12
2019-02-22T15:32:20.978Z,10.95
2019-02-22T15:34:51.467Z,11.06
2019-02-22T15:37:21.996Z,11.07
2019-02-22T15:39:52.509Z,10.36
2019-02-22T15:42:22.966Z,11.09
2019-02-22T15:44:53.480Z,11.05
2019-02-22T15:47:23.925Z,10.88
2019-02-22T15:49:54.388Z,10.81
2019-02-22T15:52:24.861Z,10.77
2019-02-22T15:54:55.354Z,10.81
2019-02-22T15:57:25.824Z,10.74
2019-02-22T15:59:57.398Z,10.72
2019-02-22T16:02:27.891Z,10.76
2019-02-22T16:05:20.427Z,10.61
2019-02-22T16:07:50.891Z,10.47
2019-02-22T16:10:21.405Z,10.44
2019-02-22T16:12:52.123Z,10.31
2019-02-22T16:15:22.843Z,10.24
2019-02-22T16:17:53.349Z,10.30
2019-02-22T16:20:24.028Z,10.22
2019-02-22T16:22:54.520Z,10.23
2019-02-22T16:25:25.021Z,10.24
2019-02-22T16:27:55.477Z,10.35
2019-02-22T16:30:27.837Z,10.22
2019-02-22T16:32:58.312Z,10.27
2019-02-22T16:35:29.210Z,10.30
2019-02-22T16:37:59.685Z,10.20
2019-02-22T16:40:30.175Z,10.20
2019-02-22T16:43:00.701Z,9.99
2019-02-22T16:45:31.364Z,10.20
2019-02-22T16:48:01.845Z,10.19
2019-02-22T16:50:32.474Z,10.16
2019-02-22T16:53:03.046Z,10.19
2019-02-22T16:55:33.586Z,10.06
2019-02-22T16:58:04.061Z,9.97
2019-02-22T17:00:34.541Z,9.90
2019-02-22T17:03:05.350Z,9.81
2019-02-22T17:05:35.871Z,9.80
2019-02-22T17:08:08.486Z,9.69
2019-02-22T17:10:38.983Z,9.70
2019-02-22T17:13:09.434Z,9.63
2019-02-22T17:15:57.560Z,9.72
2019-02-22T17:18:28.058Z,9.72
2019-02-22T17:20:58.526Z,9.71
2019-02-22T17:23:29.022Z,9.67
2019-02-22T17:25:59.484Z,9.53
2019-02-22T17:28:29.941Z,9.49
2019-02-22T17:31:00.436Z,9.50
2019-02-22T17:33:30.869Z,9.44
2019-02-22T17:36:01.347Z,9.48
2019-02-22T17:38:31.937Z,9.46
2019-02-22T17:41:02.428Z,9.55
2019-02-22T17:43:32.913Z,9.65
2019-02-22T17:46:03.422Z,9.67
2019-02-22T17:48:33.880Z,9.68
2019-02-22T17:51:04.445Z,9.66
2019-02-22T17:53:35.001Z,9.77
2019-02-22T17:56:05.562Z,9.80
2019-02-22T17:58:36.040Z,9.84
2019-02-22T18:01:06.568Z,9.79
2019-02-22T18:03:37.065Z,9.71
2019-02-22T18:06:07.522Z,9.82
2019-02-22T18:08:38.022Z,9.81
2019-02-22T18:11:08.481Z,9.68
2019-02-22T18:13:38.989Z,9.71
2019-02-22T18:16:09.451Z,9.73
2019-02-22T18:18:40.359Z,9.72
2019-02-22T18:21:10.823Z,9.67
2019-02-22T18:23:41.325Z,9.65
2019-02-22T18:26:11.799Z,9.44
2019-02-22T18:28:42.246Z,9.42
2019-02-22T18:31:12.734Z,9.33
2019-02-22T18:33:43.174Z,9.17
2019-02-22T18:36:13.951Z,9.33
2019-02-22T18:38:44.653Z,9.33
2019-02-22T18:41:15.136Z,9.40
2019-02-22T18:43:45.574Z,9.34
2019-02-22T18:46:16.019Z,9.33
2019-02-22T18:48:46.502Z,9.39
2019-02-22T18:51:16.955Z,9.39
2019-02-22T18:53:47.501Z,9.37
2019-02-22T18:56:17.999Z,9.28
2019-02-22T18:58:48.604Z,9.28
2019-02-22T19:01:19.065Z,9.30
2019-02-22T19:03:49.550Z,9.09
2019-02-22T19:06:19.996Z,9.11
2019-02-22T19:08:50.479Z,9.24
2019-02-22T19:11:20.936Z,9.29
2019-02-22T19:13:51.449Z,9.22
2019-02-22T19:16:21.907Z,9.19
2019-02-22T19:18:52.366Z,9.22
2019-02-22T19:21:22.860Z,9.25
2019-02-22T19:23:53.350Z,9.10
2019-02-22T19:26:23.838Z,9.24
2019-02-22T19:28:54.337Z,9.26
2019-02-22T19:31:24.779Z,9.25
2019-02-22T19:33:55.258Z,9.31
2019-02-22T19:36:25.710Z,9.16
2019-02-22T19:38:56.164Z,9.00
2019-02-22T19:41:26.604Z,8.99
2019-02-22T19:43:57.087Z,8.71
2019-02-22T19:46:27.540Z,8.64
2019-02-22T19:48:58.034Z,8.63
2019-02-22T19:51:28.500Z,8.65
2019-02-22T19:53:58.960Z,8.59
2019-02-22T19:56:29.505Z,8.63
2019-02-22T19:58:59.991Z,8.65
2019-02-22T20:01:30.480Z,8.64
2019-02-22T20:04:00.969Z,8.59
2019-02-22T20:06:31.418Z,8.54
2019-02-22T20:09:01.950Z,8.65
2019-02-22T20:11:32.436Z,8.61
2019-02-22T20:14:02.877Z,8.66
2019-02-22T20:16:33.326Z,8.82
2019-02-22T20:19:03.833Z,8.87
2019-02-22T20:21:34.329Z,8.92
2019-02-22T20:24:04.946Z,8.94
2019-02-22T20:26:35.382Z,8.98
2019-02-22T20:29:05.970Z,9.05
2019-02-22T20:31:36.420Z,9.08
2019-02-22T20:34:07.019Z,9.08
2019-02-22T20:36:37.495Z,9.18
2019-02-22T20:39:08.574Z,9.17
2019-02-22T20:41:39.048Z,9.22
2019-02-22T20:44:09.546Z,9.10
2019-02-22T20:46:40.302Z,9.17
2019-02-22T20:49:10.757Z,9.12
2019-02-22T20:51:41.243Z,9.23
2019-02-22T20:54:11.729Z,9.42
2019-02-22T20:56:42.217Z,9.45
2019-02-22T20:59:12.737Z,9.48
2019-02-22T21:01:43.228Z,9.49
2019-02-22T21:04:13.724Z,9.12
2019-02-22T21:06:44.172Z,9.33
2019-02-22T21:09:14.649Z,9.10
2019-02-22T21:11:45.096Z,9.17
2019-02-22T21:14:15.578Z,9.27
2019-02-22T21:16:46.075Z,9.30
2019-02-22T21:19:16.568Z,9.47
2019-02-22T21:21:47.010Z,9.53
2019-02-22T21:24:17.495Z,9.59
2019-02-22T21:26:48.292Z,9.48
2019-02-22T21:29:18.746Z,8.83
2019-02-22T21:31:49.190Z,8.42
2019-02-22T21:34:19.682Z,7.70
2019-02-22T21:36:50.134Z,6.86
2019-02-22T21:39:20.595Z,6.34
2019-02-22T21:41:51.046Z,5.94
2019-02-22T21:44:21.546Z,5.59
2019-02-22T21:46:51.983Z,5.26
2019-02-22T21:49:22.425Z,4.99
2019-02-22T21:51:52.868Z,4.83
2019-02-22T21:54:23.347Z,4.76
2019-02-22T21:56:53.788Z,4.65
2019-02-22T21:59:24.279Z,4.53
2019-02-22T22:01:54.721Z,4.45
2019-02-22T22:04:25.224Z,4.24
2019-02-22T22:06:55.661Z,4.21
2019-02-22T22:09:26.115Z,4.01
2019-02-22T22:11:56.633Z,4.01
2019-02-22T22:14:27.087Z,3.83
2019-02-22T22:16:57.539Z,3.66
2019-02-22T22:19:28.040Z,3.59
2019-02-22T22:21:58.533Z,3.61
2019-02-22T22:24:29.016Z,3.52
2019-02-22T22:26:59.483Z,3.51
2019-02-22T22:29:29.972Z,3.51
2019-02-22T22:32:00.459Z,3.29
2019-02-22T22:34:30.953Z,3.17
2019-02-22T22:37:01.425Z,3.17
2019-02-22T22:39:31.908Z,3.11
2019-02-22T22:42:02.362Z,3.12
2019-02-22T22:44:33.062Z,2.98
2019-02-22T22:47:03.503Z,2.95
2019-02-22T22:49:33.993Z,2.81
2019-02-22T22:52:04.444Z,2.87
2019-02-22T22:54:34.925Z,2.81
2019-02-22T22:57:05.463Z,2.81
2019-02-22T22:59:35.953Z,2.75
2019-02-22T23:02:06.736Z,2.75
2019-02-22T23:04:37.290Z,2.71
2019-02-22T23:07:07.801Z,2.66
2019-02-22T23:09:38.259Z,2.71
2019-02-22T23:12:08.956Z,2.72
2019-02-22T23:14:39.463Z,2.70
2019-02-22T23:17:10.012Z,2.70
2019-02-22T23:19:40.460Z,2.62
2019-02-22T23:22:10.929Z,2.57
2019-02-22T23:24:41.425Z,2.41
2019-02-22T23:27:11.945Z,2.42
2019-02-22T23:29:42.437Z,2.45
2019-02-22T23:32:12.912Z,2.49
2019-02-22T23:34:43.439Z,2.51
2019-02-22T23:37:13.944Z,2.38
2019-02-22T23:39:44.435Z,2.38
2019-02-22T23:42:14.932Z,2.43
2019-02-22T23:44:45.387Z,2.41
2019-02-22T23:47:15.883Z,2.24
2019-02-22T23:49:46.337Z,2.33
2019-02-22T23:52:16.797Z,2.35
2019-02-22T23:54:47.289Z,2.22
2019-02-22T23:57:17.739Z,2.19
2019-02-22T23:59:48.239Z,2.08
